createdAt,value
2022-12-03T00:00:54.769Z,4.52
2022-12-03T00:03:23.505Z,4.07
2022-12-03T00:05:50.825Z,4.76
2022-12-03T00:08:18.201Z,3.77
2022-12-03T00:10:45.058Z,4.36
2022-12-03T00:13:12.071Z,4.18
2022-12-03T00:15:38.989Z,4.46
2022-12-03T00:18:07.538Z,4.01
2022-12-03T00:20:35.402Z,4.77
2022-12-03T00:23:02.381Z,4.77
2022-12-03T00:25:29.187Z,4.15
2022-12-03T00:27:56.233Z,3.50
2022-12-03T00:30:23.168Z,4.40
2022-12-03T00:32:50.064Z,4.74
2022-12-03T00:35:18.128Z,4.76
2022-12-03T00:37:46.092Z,4.37
2022-12-03T00:40:13.194Z,3.50
2022-12-03T00:42:40.545Z,4.78
2022-12-03T00:45:08.141Z,4.48
2022-12-03T00:47:35.402Z,4.54
2022-12-03T00:50:05.684Z,4.53
2022-12-03T00:52:32.841Z,4.14
2022-12-03T00:55:01.860Z,4.55
2022-12-03T00:57:28.736Z,4.56
2022-12-03T00:59:55.814Z,4.17
2022-12-03T01:02:22.757Z,4.25
2022-12-03T01:04:50.277Z,4.64
2022-12-03T01:07:17.636Z,4.77
2022-12-03T01:09:44.466Z,4.23
2022-12-03T01:12:17.359Z,3.70
2022-12-03T01:14:45.160Z,4.84
2022-12-03T01:17:13.527Z,4.85
2022-12-03T01:19:46.501Z,4.31
2022-12-03T01:22:15.159Z,4.73
2022-12-03T01:24:42.149Z,4.73
2022-12-03T01:27:09.174Z,4.78
2022-12-03T01:29:35.970Z,4.88
2022-12-03T01:32:02.956Z,4.88
2022-12-03T01:34:30.971Z,4.62
2022-12-03T01:36:57.945Z,4.38
2022-12-03T01:39:24.913Z,4.74
2022-12-03T01:41:53.277Z,4.15
2022-12-03T01:44:23.957Z,4.89
2022-12-03T01:46:53.665Z,4.41
2022-12-03T01:49:24.979Z,3.69
2022-12-03T01:51:53.783Z,4.62
2022-12-03T01:54:29.582Z,4.64
2022-12-03T01:56:56.653Z,4.54
2022-12-03T01:59:34.980Z,3.96
2022-12-03T02:02:19.239Z,4.82
2022-12-03T02:04:49.541Z,4.79
2022-12-03T02:07:18.860Z,4.53
2022-12-03T02:09:46.022Z,4.56
2022-12-03T02:12:15.757Z,4.42
2022-12-03T02:14:43.419Z,4.52
2022-12-03T02:17:11.904Z,4.59
2022-12-03T02:19:39.573Z,4.56
2022-12-03T02:22:28.174Z,4.84
2022-12-03T02:25:07.086Z,4.81
2022-12-03T02:27:34.018Z,4.05
2022-12-03T02:30:00.996Z,3.61
2022-12-03T02:32:28.949Z,4.85
2022-12-03T02:34:56.185Z,4.75
2022-12-03T02:37:29.729Z,4.12
2022-12-03T02:40:01.370Z,4.24
2022-12-03T02:42:29.806Z,4.06
2022-12-03T02:45:04.703Z,4.69
2022-12-03T02:47:35.498Z,4.73
2022-12-03T02:50:03.389Z,4.54
2022-12-03T02:52:30.961Z,4.69
2022-12-03T02:54:59.089Z,4.88
2022-12-03T02:57:27.125Z,4.84
2022-12-03T02:59:54.095Z,4.70
2022-12-03T03:02:21.070Z,4.65
2022-12-03T03:04:49.110Z,4.63
2022-12-03T03:07:16.846Z,4.91
2022-12-03T03:09:43.787Z,4.93
2022-12-03T03:12:11.121Z,5.00
2022-12-03T03:14:38.607Z,4.36
2022-12-03T03:17:05.997Z,4.23
2022-12-03T03:19:33.206Z,4.74
2022-12-03T03:22:01.170Z,4.64
2022-12-03T03:24:28.217Z,4.85
2022-12-03T03:26:55.603Z,4.69
2022-12-03T03:29:28.681Z,4.02
2022-12-03T03:31:55.820Z,4.75
2022-12-03T03:34:23.204Z,4.09
2022-12-03T03:36:50.582Z,4.91
2022-12-03T03:39:17.445Z,4.93
2022-12-03T03:41:46.756Z,4.27
2022-12-03T03:44:14.567Z,4.32
2022-12-03T03:46:42.717Z,4.27
2022-12-03T03:49:10.499Z,4.71
2022-12-03T03:51:38.963Z,4.92
2022-12-03T03:54:06.907Z,4.57
2022-12-03T03:56:35.084Z,4.94
2022-12-03T03:59:03.950Z,4.60
2022-12-03T04:01:31.916Z,5.05
2022-12-03T04:03:59.655Z,4.45
2022-12-03T04:06:27.551Z,5.08
2022-12-03T04:08:54.871Z,4.69
2022-12-03T04:11:22.107Z,4.25
2022-12-03T04:13:51.039Z,3.58
2022-12-03T04:16:18.003Z,4.02
2022-12-03T04:18:44.895Z,4.58
2022-12-03T04:21:14.549Z,4.55
2022-12-03T04:23:41.323Z,4.50
2022-12-03T04:26:08.297Z,4.38
2022-12-03T04:28:35.251Z,4.45
2022-12-03T04:31:02.228Z,4.60
2022-12-03T04:33:29.182Z,4.44
2022-12-03T04:35:56.116Z,4.24
2022-12-03T04:38:23.003Z,4.31
2022-12-03T04:40:49.952Z,4.36
2022-12-03T04:43:16.863Z,4.34
2022-12-03T04:45:44.946Z,4.13
2022-12-03T04:48:12.345Z,4.53
2022-12-03T04:50:39.260Z,4.50
2022-12-03T04:53:06.375Z,4.27
2022-12-03T04:55:33.853Z,4.54
2022-12-03T04:58:01.275Z,4.22
2022-12-03T05:00:28.639Z,4.46
2022-12-03T05:02:55.670Z,4.52
2022-12-03T05:05:22.945Z,4.39
2022-12-03T05:07:51.063Z,3.21
2022-12-03T05:10:18.551Z,4.16
2022-12-03T05:12:45.899Z,4.36
2022-12-03T05:15:12.917Z,3.40
2022-12-03T05:17:39.774Z,4.39
2022-12-03T05:20:09.621Z,4.39
2022-12-03T05:22:36.836Z,4.45
2022-12-03T05:25:04.337Z,4.40
2022-12-03T05:27:31.672Z,4.50
2022-12-03T05:29:58.629Z,4.47
2022-12-03T05:32:26.513Z,4.46
2022-12-03T05:34:53.779Z,4.28
2022-12-03T05:37:20.945Z,4.42
2022-12-03T05:39:47.980Z,4.10
2022-12-03T05:42:14.926Z,4.76
2022-12-03T05:44:41.866Z,4.72
2022-12-03T05:47:08.753Z,4.38
2022-12-03T05:49:35.772Z,3.96
2022-12-03T05:52:02.732Z,4.63
2022-12-03T05:54:30.092Z,4.58
2022-12-03T05:56:57.096Z,4.62
2022-12-03T05:59:24.105Z,4.72
2022-12-03T06:01:50.956Z,4.80
2022-12-03T06:04:18.901Z,4.78
2022-12-03T06:06:45.782Z,4.83
2022-12-03T06:09:13.306Z,4.78
2022-12-03T06:11:40.181Z,4.85
2022-12-03T06:14:07.285Z,4.82
2022-12-03T06:16:34.221Z,4.59
2022-12-03T06:19:01.528Z,4.58
2022-12-03T06:21:28.569Z,4.83
2022-12-03T06:23:55.523Z,4.87
2022-12-03T06:26:22.537Z,4.94
2022-12-03T06:28:50.012Z,4.83
2022-12-03T06:31:17.579Z,4.82
2022-12-03T06:33:44.829Z,4.77
2022-12-03T06:36:11.858Z,4.89
2022-12-03T06:38:39.254Z,4.78
2022-12-03T06:41:06.132Z,4.80
2022-12-03T06:43:33.070Z,4.90
2022-12-03T06:46:00.194Z,4.14
2022-12-03T06:48:27.554Z,4.77
2022-12-03T06:50:55.037Z,4.07
2022-12-03T06:53:22.488Z,4.90
2022-12-03T06:55:49.266Z,4.55
2022-12-03T06:58:16.238Z,4.87
2022-12-03T07:00:43.381Z,4.25
2022-12-03T07:03:16.521Z,5.03
2022-12-03T07:05:43.847Z,4.89
2022-12-03T07:08:10.920Z,4.70
2022-12-03T07:10:38.339Z,4.58
2022-12-03T07:13:05.238Z,4.95
2022-12-03T07:15:32.118Z,5.21
2022-12-03T07:17:59.380Z,5.24
2022-12-03T07:20:26.558Z,5.20
2022-12-03T07:22:53.426Z,4.77
2022-12-03T07:25:23.400Z,4.91
2022-12-03T07:27:51.153Z,4.03
2022-12-03T07:30:19.443Z,4.98
2022-12-03T07:32:46.223Z,5.15
2022-12-03T07:35:13.553Z,5.10
2022-12-03T07:37:40.733Z,4.64
2022-12-03T07:40:08.120Z,4.71
2022-12-03T07:42:35.412Z,5.18
2022-12-03T07:45:02.859Z,5.11
2022-12-03T07:47:30.201Z,5.00
2022-12-03T07:49:57.215Z,4.47
2022-12-03T07:52:24.619Z,4.98
2022-12-03T07:54:51.847Z,5.09
2022-12-03T07:57:19.490Z,4.86
2022-12-03T07:59:46.379Z,5.18
2022-12-03T08:02:19.532Z,5.34
2022-12-03T08:04:47.857Z,5.10
2022-12-03T08:07:14.829Z,4.93
2022-12-03T08:09:42.258Z,5.04
2022-12-03T08:12:30.413Z,5.44
2022-12-03T08:14:57.639Z,5.48
2022-12-03T08:17:27.036Z,5.28
2022-12-03T08:19:54.117Z,5.39
2022-12-03T08:22:21.048Z,5.41
2022-12-03T08:24:48.001Z,5.52
2022-12-03T08:27:19.700Z,5.55
2022-12-03T08:29:46.928Z,5.57
2022-12-03T08:32:14.043Z,5.59
2022-12-03T08:34:43.327Z,5.55
2022-12-03T08:37:20.324Z,4.88
2022-12-03T08:39:50.495Z,5.55
2022-12-03T08:42:22.134Z,5.42
2022-12-03T08:44:49.462Z,5.55
2022-12-03T08:47:21.629Z,5.54
2022-12-03T08:49:55.687Z,5.71
2022-12-03T08:52:30.770Z,5.06
2022-12-03T08:54:57.874Z,5.51
2022-12-03T08:57:33.620Z,5.53
2022-12-03T09:00:15.766Z,5.58
2022-12-03T09:02:48.260Z,5.63
2022-12-03T09:05:32.823Z,4.69
2022-12-03T09:07:59.893Z,5.93
2022-12-03T09:10:27.056Z,5.79
2022-12-03T09:12:54.022Z,5.84
2022-12-03T09:15:20.918Z,5.47
2022-12-03T09:17:47.936Z,5.86
2022-12-03T09:20:15.023Z,5.29
2022-12-03T09:22:42.304Z,6.26
2022-12-03T09:25:10.490Z,6.06
2022-12-03T09:27:37.887Z,6.23
2022-12-03T09:30:06.192Z,6.19
2022-12-03T09:32:33.507Z,6.26
2022-12-03T09:35:00.880Z,6.15
2022-12-03T09:37:28.119Z,6.31
2022-12-03T09:39:54.947Z,6.00
2022-12-03T09:42:22.470Z,6.52
2022-12-03T09:44:49.316Z,6.50
2022-12-03T09:47:16.571Z,6.34
2022-12-03T09:49:44.290Z,5.64
2022-12-03T09:52:20.819Z,6.44
2022-12-03T09:54:48.266Z,6.33
2022-12-03T09:57:16.913Z,5.83
2022-12-03T09:59:43.953Z,5.64
2022-12-03T10:02:31.504Z,6.09
2022-12-03T10:04:59.074Z,6.11
2022-12-03T10:07:26.612Z,6.17
2022-12-03T10:09:54.328Z,5.45
2022-12-03T10:12:24.913Z,6.48
2022-12-03T10:14:53.784Z,6.33
2022-12-03T10:17:21.690Z,6.32
2022-12-03T10:19:48.776Z,5.91
2022-12-03T10:22:16.170Z,6.50
2022-12-03T10:24:43.119Z,6.31
2022-12-03T10:27:30.698Z,6.19
2022-12-03T10:30:00.590Z,6.62
2022-12-03T10:32:49.397Z,6.55
2022-12-03T10:35:39.651Z,6.59
2022-12-03T10:38:20.188Z,6.53
2022-12-03T10:40:47.261Z,6.55
2022-12-03T10:43:25.200Z,6.49
2022-12-03T10:46:03.558Z,6.53
2022-12-03T10:48:31.653Z,6.53
2022-12-03T10:51:20.226Z,6.20
2022-12-03T10:53:49.950Z,6.46
2022-12-03T10:56:28.779Z,6.38
2022-12-03T10:58:56.227Z,5.97
2022-12-03T11:01:25.854Z,6.75
2022-12-03T11:04:04.145Z,6.79
2022-12-03T11:06:32.124Z,6.48
2022-12-03T11:09:06.939Z,5.87
2022-12-03T11:11:36.255Z,6.73
2022-12-03T11:14:04.994Z,6.72
2022-12-03T11:16:47.292Z,6.81
2022-12-03T11:19:38.852Z,6.80
2022-12-03T11:22:05.706Z,6.74
2022-12-03T11:24:40.401Z,6.63
2022-12-03T11:27:15.289Z,6.65
2022-12-03T11:29:48.011Z,6.57
2022-12-03T11:32:59.888Z,6.57
2022-12-03T11:35:35.230Z,6.57
2022-12-03T11:38:39.247Z,6.53
2022-12-03T11:41:17.706Z,6.44
2022-12-03T11:43:53.914Z,6.50
2022-12-03T11:46:22.628Z,6.46
2022-12-03T11:48:51.575Z,6.60
2022-12-03T11:51:23.073Z,6.27
2022-12-03T11:53:52.655Z,6.23
2022-12-03T11:56:24.667Z,6.38
2022-12-03T11:59:03.539Z,6.43
2022-12-03T12:01:39.269Z,6.44
2022-12-03T12:04:08.579Z,6.37
2022-12-03T12:06:44.288Z,6.51
2022-12-03T12:09:11.438Z,6.48
2022-12-03T12:11:39.678Z,6.52
2022-12-03T12:14:11.707Z,6.46
2022-12-03T12:16:51.109Z,6.63
2022-12-03T12:19:40.754Z,6.62
2022-12-03T12:22:22.825Z,6.61
2022-12-03T12:24:52.897Z,6.58
2022-12-03T12:27:30.059Z,6.66
2022-12-03T12:30:09.222Z,5.44
2022-12-03T12:32:47.429Z,6.59
2022-12-03T12:35:19.752Z,6.62
2022-12-03T12:38:00.622Z,6.65
2022-12-03T12:40:32.923Z,5.39
2022-12-03T12:43:08.482Z,6.66
2022-12-03T12:45:42.030Z,6.45
2022-12-03T12:48:18.340Z,6.68
2022-12-03T12:50:49.032Z,6.60
2022-12-03T12:53:25.183Z,6.60
2022-12-03T12:55:58.615Z,6.58
2022-12-03T12:58:28.809Z,6.53
2022-12-03T13:01:07.805Z,6.29
2022-12-03T13:03:39.424Z,6.50
2022-12-03T13:06:06.682Z,6.58
2022-12-03T13:08:39.639Z,6.68
2022-12-03T13:11:33.248Z,6.54
2022-12-03T13:14:33.231Z,6.56
2022-12-03T13:17:01.801Z,6.50
2022-12-03T13:19:43.302Z,5.99
2022-12-03T13:22:18.591Z,6.70
2022-12-03T13:24:51.189Z,6.50
2022-12-03T13:27:18.269Z,6.65
2022-12-03T13:29:47.589Z,6.49
2022-12-03T13:32:19.476Z,6.53
2022-12-03T13:34:47.587Z,6.57
2022-12-03T13:37:20.210Z,6.57
2022-12-03T13:39:51.925Z,6.55
2022-12-03T13:42:25.173Z,6.55
2022-12-03T13:44:53.493Z,6.39
2022-12-03T13:47:22.096Z,6.40
2022-12-03T13:50:00.676Z,6.40
2022-12-03T13:52:32.872Z,6.29
2022-12-03T13:55:03.621Z,5.18
2022-12-03T13:57:30.883Z,5.15
2022-12-03T13:59:57.762Z,6.16
2022-12-03T14:02:24.719Z,6.36
2022-12-03T14:04:56.842Z,6.26
2022-12-03T14:07:34.057Z,6.23
2022-12-03T14:10:01.645Z,5.96
2022-12-03T14:12:28.900Z,5.98
2022-12-03T14:14:55.851Z,5.97
2022-12-03T14:17:23.808Z,6.21
2022-12-03T14:19:52.389Z,6.13
2022-12-03T14:22:19.773Z,6.16
2022-12-03T14:24:47.716Z,6.22
2022-12-03T14:27:16.780Z,6.17
2022-12-03T14:29:43.602Z,6.01
2022-12-03T14:32:10.645Z,5.65
2022-12-03T14:34:38.249Z,6.17
2022-12-03T14:37:06.754Z,6.00
2022-12-03T14:39:33.925Z,5.72
2022-12-03T14:42:00.920Z,5.78
2022-12-03T14:44:28.870Z,4.70
2022-12-03T14:46:57.452Z,6.03
2022-12-03T14:49:25.307Z,6.00
2022-12-03T14:51:52.363Z,4.96
2022-12-03T14:54:20.761Z,5.57
2022-12-03T14:56:47.888Z,6.05
2022-12-03T14:59:15.303Z,6.07
2022-12-03T15:01:42.240Z,5.23
2022-12-03T15:04:09.618Z,5.34
2022-12-03T15:06:36.788Z,5.78
2022-12-03T15:09:04.368Z,6.09
2022-12-03T15:11:40.236Z,5.48
2022-12-03T15:14:12.732Z,6.01
2022-12-03T15:16:40.619Z,5.75
2022-12-03T15:19:10.409Z,6.11
2022-12-03T15:21:37.566Z,5.92
2022-12-03T15:24:05.786Z,6.14
2022-12-03T15:26:34.180Z,6.05
2022-12-03T15:31:55.289Z,5.92
2022-12-03T15:34:23.303Z,6.10
2022-12-03T15:36:50.984Z,5.47
2022-12-03T15:39:17.838Z,5.72
2022-12-03T15:41:44.891Z,5.84
2022-12-03T15:44:12.908Z,5.94
2022-12-03T15:46:39.952Z,6.01
2022-12-03T15:49:06.857Z,5.82
2022-12-03T15:51:33.789Z,5.90
2022-12-03T15:54:00.951Z,5.90
2022-12-03T15:56:28.235Z,4.91
2022-12-03T15:58:55.306Z,5.98
2022-12-03T16:01:23.744Z,5.85
2022-12-03T16:03:50.943Z,5.83
2022-12-03T16:06:17.990Z,5.93
2022-12-03T16:08:44.864Z,5.66
2022-12-03T16:11:12.930Z,5.54
2022-12-03T16:13:39.936Z,6.04
2022-12-03T16:16:07.094Z,5.83
2022-12-03T16:18:34.292Z,5.34
2022-12-03T16:21:01.398Z,5.97
2022-12-03T16:23:29.007Z,5.49
2022-12-03T16:25:57.232Z,5.98
2022-12-03T16:28:26.148Z,5.99
2022-12-03T16:30:54.411Z,5.31
2022-12-03T16:33:27.266Z,5.39
2022-12-03T16:35:55.314Z,4.97
2022-12-03T16:38:22.570Z,5.88
2022-12-03T16:40:49.690Z,5.71
2022-12-03T16:43:16.699Z,5.55
2022-12-03T16:45:44.637Z,5.47
2022-12-03T16:48:11.752Z,4.98
2022-12-03T16:50:39.046Z,5.34
2022-12-03T16:53:07.155Z,5.33
2022-12-03T16:55:35.186Z,5.07
2022-12-03T16:58:02.754Z,5.08
2022-12-03T17:00:29.987Z,5.05
2022-12-03T17:02:57.026Z,5.04
2022-12-03T17:05:24.582Z,3.70
2022-12-03T17:07:52.147Z,4.77
2022-12-03T17:10:19.435Z,4.15
2022-12-03T17:13:10.166Z,4.55
2022-12-03T17:15:35.678Z,4.16
2022-12-03T17:18:04.647Z,4.49
2022-12-03T17:20:32.974Z,3.98
2022-12-03T17:23:00.742Z,4.32
2022-12-03T17:25:28.284Z,4.23
2022-12-03T17:27:55.442Z,4.09
2022-12-03T17:30:22.798Z,4.36
2022-12-03T17:36:22.383Z,4.10
2022-12-03T17:38:49.479Z,4.10
2022-12-03T17:41:16.431Z,4.12
2022-12-03T17:43:43.304Z,4.10
2022-12-03T17:46:10.276Z,4.12
2022-12-03T17:48:37.200Z,4.17
2022-12-03T17:51:04.216Z,4.00
2022-12-03T17:53:31.226Z,4.05
2022-12-03T17:55:57.993Z,4.07
2022-12-03T17:58:24.962Z,3.30
2022-12-03T18:00:56.032Z,3.45
2022-12-03T18:03:27.565Z,4.05
2022-12-03T18:05:54.601Z,3.52
2022-12-03T18:08:21.546Z,4.42
2022-12-03T18:10:49.318Z,4.45
2022-12-03T18:13:16.379Z,4.08
2022-12-03T18:15:43.403Z,4.33
2022-12-03T18:18:10.674Z,4.46
2022-12-03T18:20:37.958Z,4.02
2022-12-03T18:23:05.660Z,4.49
2022-12-03T18:25:32.788Z,4.02
2022-12-03T18:28:01.301Z,4.63
2022-12-03T18:30:28.637Z,3.94
2022-12-03T18:32:56.211Z,4.65
2022-12-03T18:35:23.849Z,4.57
2022-12-03T18:37:51.440Z,4.51
2022-12-03T18:40:24.003Z,4.25
2022-12-03T18:42:51.127Z,4.26
2022-12-03T18:45:19.278Z,4.35
2022-12-03T18:47:46.552Z,3.63
2022-12-03T18:50:14.446Z,4.20
2022-12-03T18:52:41.460Z,4.33
2022-12-03T18:55:14.889Z,4.33
2022-12-03T18:57:41.894Z,4.29
2022-12-03T19:00:13.451Z,4.09
2022-12-03T19:05:29.018Z,4.21
2022-12-03T19:07:56.340Z,4.13
2022-12-03T19:10:24.105Z,4.37
2022-12-03T19:12:51.435Z,3.84
2022-12-03T19:15:19.194Z,4.38
2022-12-03T19:17:49.724Z,4.36
2022-12-03T19:20:16.734Z,4.39
2022-12-03T19:22:44.168Z,4.30
2022-12-03T19:25:12.102Z,4.53
2022-12-03T19:27:39.102Z,4.64
2022-12-03T19:30:06.919Z,4.35
2022-12-03T19:32:35.052Z,4.64
2022-12-03T19:35:02.692Z,4.63
2022-12-03T19:37:32.108Z,4.54
2022-12-03T19:39:59.912Z,4.60
2022-12-03T19:42:26.851Z,3.42
2022-12-03T19:44:53.868Z,4.06
2022-12-03T19:47:21.129Z,4.34
2022-12-03T19:49:48.625Z,4.48
2022-12-03T19:52:15.908Z,4.03
2022-12-03T19:54:44.103Z,3.71
2022-12-03T19:57:11.105Z,4.53
2022-12-03T19:59:38.920Z,4.60
2022-12-03T20:02:06.358Z,4.30
2022-12-03T20:04:33.453Z,4.50
2022-12-03T20:07:00.696Z,4.16
2022-12-03T20:09:28.079Z,4.46
2022-12-03T20:11:55.443Z,4.30
2022-12-03T20:14:22.602Z,3.27
2022-12-03T20:16:50.000Z,4.40
2022-12-03T20:19:18.221Z,4.42
2022-12-03T20:21:45.452Z,4.40
2022-12-03T20:24:17.428Z,4.38
2022-12-03T20:26:44.870Z,4.53
2022-12-03T20:29:12.336Z,3.77
2022-12-03T20:31:39.902Z,3.09
2022-12-03T20:34:07.171Z,4.25
2022-12-03T20:36:34.187Z,4.28
2022-12-03T20:39:04.004Z,4.35
2022-12-03T20:41:31.033Z,4.15
2022-12-03T20:43:58.074Z,4.10
2022-12-03T20:46:30.108Z,4.26
2022-12-03T20:48:57.844Z,4.16
2022-12-03T20:51:28.301Z,4.30
2022-12-03T20:53:58.546Z,4.23
2022-12-03T20:56:29.735Z,4.34
2022-12-03T20:58:57.071Z,4.33
2022-12-03T21:01:26.298Z,4.34
2022-12-03T21:03:55.508Z,4.40
2022-12-03T21:06:24.861Z,4.44
2022-12-03T21:08:56.202Z,4.47
2022-12-03T21:11:26.721Z,4.50
2022-12-03T21:13:54.673Z,4.36
2022-12-03T21:16:45.615Z,4.24
2022-12-03T21:19:11.294Z,4.09
2022-12-03T21:21:37.994Z,3.56
2022-12-03T21:24:06.222Z,3.55
2022-12-03T21:26:33.603Z,3.73
2022-12-03T21:29:00.516Z,3.98
2022-12-03T21:31:27.554Z,2.70
2022-12-03T21:33:56.037Z,3.91
2022-12-03T21:36:24.684Z,4.00
2022-12-03T21:38:53.107Z,3.91
2022-12-03T21:41:20.508Z,3.95
2022-12-03T21:43:48.161Z,4.30
2022-12-03T21:47:08.419Z,3.27
2022-12-03T21:49:02.601Z,4.10
2022-12-03T21:51:29.779Z,4.09
2022-12-03T21:53:58.442Z,4.12
2022-12-03T21:56:25.520Z,4.10
2022-12-03T21:58:53.420Z,4.04
2022-12-03T22:01:23.270Z,3.94
2022-12-03T22:03:50.832Z,3.99
2022-12-03T22:06:18.867Z,3.49
2022-12-03T22:08:46.219Z,4.33
2022-12-03T22:11:21.964Z,4.37
2022-12-03T22:13:49.490Z,4.02
2022-12-03T22:16:19.684Z,3.76
2022-12-03T22:18:50.321Z,4.30
2022-12-03T22:21:19.750Z,4.36
2022-12-03T22:23:49.100Z,3.63
2022-12-03T22:26:17.979Z,4.49
2022-12-03T22:28:48.809Z,3.75
2022-12-03T22:31:17.740Z,3.52
2022-12-03T22:33:45.201Z,3.06
2022-12-03T22:36:20.108Z,4.39
2022-12-03T22:38:48.736Z,4.40
2022-12-03T22:41:15.795Z,4.30
2022-12-03T22:43:42.881Z,4.30
2022-12-03T22:46:11.654Z,4.21
2022-12-03T22:48:39.379Z,4.33
2022-12-03T22:51:17.973Z,4.25
2022-12-03T22:53:45.564Z,4.25
2022-12-03T22:56:13.011Z,4.34
2022-12-03T22:58:40.731Z,3.66
2022-12-03T23:01:08.081Z,4.30
2022-12-03T23:03:36.221Z,4.23
2022-12-03T23:06:10.598Z,4.20
2022-12-03T23:08:38.372Z,4.14
2022-12-03T23:11:05.882Z,4.13
2022-12-03T23:13:33.109Z,3.96
2022-12-03T23:16:00.222Z,4.19
2022-12-03T23:18:27.596Z,4.06
2022-12-03T23:20:56.284Z,4.22
2022-12-03T23:23:25.858Z,4.28
2022-12-03T23:26:05.387Z,4.24
2022-12-03T23:28:34.350Z,4.20
2022-12-03T23:31:03.593Z,4.16
2022-12-03T23:33:36.672Z,4.07
2022-12-03T23:36:07.158Z,2.76
2022-12-03T23:38:34.573Z,4.00
2022-12-03T23:41:10.696Z,4.04
2022-12-03T23:43:38.756Z,4.00
2022-12-03T23:46:11.289Z,4.04
2022-12-03T23:48:38.454Z,4.01
2022-12-03T23:51:17.125Z,3.89
2022-12-03T23:53:45.069Z,3.54
2022-12-03T23:56:19.972Z,3.21
2022-12-03T23:58:47.725Z,3.93
